Time;durP1;ratioP1;P1;durP2;ratioP2;P2;SDS_P1;SDS_P2;PMS_P1;PMS_P2;Temp;Humidity;BMP_temperature;BMP_pressure;BME280_temperature;BME280_humidity;BME280_pressure;Samples;Min_cycle;Max_cycle;Signal;HPM_P1;HPM_P2
2023/10/16 00:00:29;;;;;;;4.88;1.45;;;;;;;4.31;100.00;102222.28;1243585;23;20276;-89
2023/10/16 00:00:52;;;;;;;2.38;1.25;;;;;;;4.26;100.00;102227.16;1244894;23;20272;-89
2023/10/16 00:01:26;;;;;;;8.20;1.10;;;;;;;4.26;100.00;102224.50;1235467;23;20273;-90
2023/10/16 00:01:58;;;;;;;3.95;1.40;;;;;;;4.44;100.00;102222.81;1237558;24;20340;-90
2023/10/16 00:02:30;;;;;;;1.83;0.98;;;;;;;4.52;100.00;102222.94;1241156;23;20279;-89
2023/10/16 00:03:02;;;;;;;1.35;1.25;;;;;;;4.54;100.00;102226.25;1245652;23;20360;-89
2023/10/16 00:03:42;;;;;;;3.03;1.50;;;;;;;4.55;100.00;102222.66;1249958;23;20279;-90
2023/10/16 00:04:14;;;;;;;6.40;2.05;;;;;;;4.57;100.00;102220.69;1241363;23;20324;-90
2023/10/16 00:04:46;;;;;;;1.17;1.00;;;;;;;4.63;100.00;102227.19;1245752;23;20276;-89
2023/10/16 00:05:18;;;;;;;1.27;0.95;;;;;;;4.61;100.00;102224.72;1242970;23;20272;-89
2023/10/16 00:05:49;;;;;;;1.98;1.15;;;;;;;4.65;100.00;102222.63;1241014;23;20729;-89
2023/10/16 00:06:21;;;;;;;2.97;1.17;;;;;;;4.75;100.00;102233.16;1235353;23;20283;-89
2023/10/16 00:06:53;;;;;;;5.40;1.38;;;;;;;4.62;100.00;102223.72;1235841;23;20348;-90
2023/10/16 00:07:27;;;;;;;2.28;1.05;;;;;;;4.56;100.00;102228.75;1243411;23;20271;-90
2023/10/16 00:08:05;;;;;;;2.35;1.00;;;;;;;4.60;100.00;102225.69;1251286;23;20264;-90
2023/10/16 00:09:14;;;;;;;2.63;1.17;;;;;;;4.68;100.00;102221.53;1243154;23;20296;-90
2023/10/16 00:09:46;;;;;;;1.63;1.52;;;;;;;4.58;100.00;102225.00;1244725;23;20253;-89
2023/10/16 00:10:17;;;;;;;3.60;1.20;;;;;;;4.64;100.00;102229.69;1239376;23;20298;-90
2023/10/16 00:10:56;;;;;;;3.40;1.23;;;;;;;4.64;100.00;102221.78;1233146;24;20347;-89
2023/10/16 00:11:27;;;;;;;2.72;1.35;;;;;;;4.69;100.00;102225.81;1229314;24;20285;-90
2023/10/16 00:11:59;;;;;;;4.30;1.52;;;;;;;4.61;100.00;102222.06;1230016;24;20281;-90
2023/10/16 00:12:30;;;;;;;2.38;0.98;;;;;;;4.53;100.00;102224.59;1239971;24;20257;-90
2023/10/16 00:13:10;;;;;;;3.17;1.00;;;;;;;4.56;100.00;102224.31;1232230;24;20960;-90
2023/10/16 00:13:41;;;;;;;1.50;1.00;;;;;;;4.51;100.00;102229.19;1231390;24;20323;-89
2023/10/16 00:14:23;;;;;;;1.75;1.23;;;;;;;4.60;100.00;102224.84;1235904;24;20291;-89
2023/10/16 00:14:55;;;;;;;2.88;1.23;;;;;;;4.63;100.00;102225.41;1245787;23;20331;-89
2023/10/16 00:15:26;;;;;;;2.20;1.90;;;;;;;4.63;100.00;102220.13;1237763;24;20620;-90
2023/10/16 00:16:02;;;;;;;2.30;1.30;;;;;;;4.68;100.00;102225.00;1231845;24;20276;-89
2023/10/16 00:16:34;;;;;;;2.33;1.27;;;;;;;4.68;100.00;102224.16;1239946;24;20377;-89
2023/10/16 00:17:08;;;;;;;3.30;1.10;;;;;;;4.71;100.00;102224.69;1243429;23;20317;-90
2023/10/16 00:17:39;;;;;;;2.58;0.80;;;;;;;4.77;100.00;102220.66;1244488;23;20253;-89
2023/10/16 00:18:18;;;;;;;3.78;1.85;;;;;;;4.65;100.00;102220.81;1230597;24;20392;-90
2023/10/16 00:18:53;;;;;;;3.53;1.27;;;;;;;4.64;100.00;102223.59;1237228;24;20277;-89
2023/10/16 00:19:26;;;;;;;3.33;1.60;;;;;;;4.65;100.00;102217.34;1237150;24;20280;-89
2023/10/16 00:19:57;;;;;;;1.67;1.58;;;;;;;4.70;100.00;102209.00;1231141;24;20618;-90
2023/10/16 00:20:30;;;;;;;1.35;0.75;;;;;;;4.59;100.00;102213.47;1237760;24;20273;-90
2023/10/16 00:21:06;;;;;;;2.17;1.38;;;;;;;4.62;100.00;102213.16;1228925;24;20265;-89
2023/10/16 00:21:57;;;;;;;5.10;2.92;;;;;;;4.67;100.00;102210.13;1236425;24;20284;-89
2023/10/16 00:22:29;;;;;;;3.75;1.48;;;;;;;4.67;100.00;102209.31;1243613;23;20324;-90
2023/10/16 00:23:04;;;;;;;5.80;1.13;;;;;;;4.68;100.00;102213.59;1252055;23;20019;-89
2023/10/16 00:23:39;;;;;;;2.53;1.27;;;;;;;4.65;100.00;102212.06;1246413;23;20256;-90
2023/10/16 00:24:11;;;;;;;2.00;0.77;;;;;;;4.68;100.00;102205.69;1250267;23;20282;-90
2023/10/16 00:24:47;;;;;;;1.50;1.40;;;;;;;4.63;100.00;102209.56;1235615;24;20272;-90
2023/10/16 00:25:24;;;;;;;5.90;1.30;;;;;;;4.64;100.00;102211.22;1221042;24;20275;-89
2023/10/16 00:25:56;;;;;;;2.78;1.20;;;;;;;4.67;100.00;102211.94;1243375;23;20272;-89
2023/10/16 00:26:30;;;;;;;4.60;1.83;;;;;;;4.61;100.00;102211.50;1238969;24;20261;-89
2023/10/16 00:27:01;;;;;;;3.80;1.50;;;;;;;4.67;100.00;102214.59;1235762;23;20344;-89
2023/10/16 00:27:34;;;;;;;2.28;1.08;;;;;;;4.69;100.00;102216.09;1235620;24;20301;-89
2023/10/16 00:28:07;;;;;;;5.38;1.63;;;;;;;4.70;100.00;102217.75;1235279;24;20262;-89
2023/10/16 00:28:45;;;;;;;1.80;1.30;;;;;;;4.73;100.00;102220.09;1243583;23;20268;-89
2023/10/16 00:29:23;;;;;;;2.45;1.02;;;;;;;4.63;100.00;102222.75;1235482;24;20359;-89
2023/10/16 00:29:55;;;;;;;3.42;2.53;;;;;;;4.59;100.00;102212.63;1238431;24;20253;-89
2023/10/16 00:30:27;;;;;;;7.18;1.00;;;;;;;4.55;100.00;102222.66;1243788;23;20299;-89
2023/10/16 00:30:58;;;;;;;6.10;1.52;;;;;;;4.56;100.00;102218.19;1250195;23;20267;-90
2023/10/16 00:31:32;;;;;;;5.72;1.98;;;;;;;4.48;100.00;102218.91;1242874;23;20283;-90
2023/10/16 00:32:07;;;;;;;1.63;1.50;;;;;;;4.53;100.00;102221.13;1237125;24;20276;-89
2023/10/16 00:32:38;;;;;;;3.08;1.30;;;;;;;4.56;100.00;102224.31;1250242;23;20252;-90
2023/10/16 00:33:13;;;;;;;4.15;3.45;;;;;;;4.65;100.00;102222.63;1252200;23;20267;-90
2023/10/16 00:33:45;;;;;;;4.53;1.75;;;;;;;4.65;100.00;102219.97;1235982;24;20284;-89
2023/10/16 00:34:20;;;;;;;3.65;1.63;;;;;;;4.63;100.00;102222.75;1243155;23;20381;-89
2023/10/16 00:34:52;;;;;;;4.13;1.60;;;;;;;4.62;100.00;102223.72;1244671;23;20816;-89
2023/10/16 00:35:24;;;;;;;2.70;1.42;;;;;;;4.46;100.00;102220.88;1235322;24;20276;-90
2023/10/16 00:35:56;;;;;;;3.53;1.27;;;;;;;4.51;100.00;102218.63;1231964;24;20337;-89
2023/10/16 00:36:27;;;;;;;5.78;1.58;;;;;;;4.58;100.00;102225.00;1234011;24;20265;-90
2023/10/16 00:37:01;;;;;;;4.40;1.70;;;;;;;4.55;100.00;102220.00;1237888;24;20277;-90
2023/10/16 00:37:34;;;;;;;5.75;2.55;;;;;;;4.58;100.00;102221.53;1237476;23;20376;-89
2023/10/16 00:38:12;;;;;;;9.07;1.67;;;;;;;4.58;100.00;102216.25;1237766;24;20269;-89
2023/10/16 00:38:48;;;;;;;3.38;1.48;;;;;;;4.54;100.00;102220.16;1235184;23;20272;-89
2023/10/16 00:39:22;;;;;;;3.25;1.50;;;;;;;4.50;100.00;102219.59;1243116;23;20601;-89
2023/10/16 00:39:55;;;;;;;2.78;1.48;;;;;;;4.56;100.00;102219.03;1243873;23;20432;-90
2023/10/16 00:40:33;;;;;;;3.92;1.05;;;;;;;4.51;100.00;102226.56;1238745;23;20275;-90
2023/10/16 00:41:15;;;;;;;5.43;1.50;;;;;;;4.53;100.00;102218.50;1243429;23;20271;-90
2023/10/16 00:41:50;;;;;;;1.95;1.15;;;;;;;4.58;100.00;102216.25;1231723;24;20284;-90
2023/10/16 00:42:21;;;;;;;3.55;1.70;;;;;;;4.57;100.00;102225.13;1249123;23;20275;-89
2023/10/16 00:42:53;;;;;;;1.98;1.25;;;;;;;4.59;100.00;102223.19;1242722;23;20268;-90
2023/10/16 00:43:28;;;;;;;3.47;1.30;;;;;;;4.58;100.00;102222.34;1238636;24;20582;-90
2023/10/16 00:43:59;;;;;;;1.95;1.80;;;;;;;4.62;100.00;102223.72;1239634;23;20265;-90
2023/10/16 00:44:33;;;;;;;3.65;1.58;;;;;;;4.37;100.00;102219.06;1243107;23;20275;-89
2023/10/16 00:45:06;;;;;;;5.13;1.40;;;;;;;4.49;100.00;102231.13;1244167;23;20757;-90
2023/10/16 00:45:48;;;;;;;4.05;1.63;;;;;;;4.38;100.00;102226.00;1251341;23;20326;-90
2023/10/16 00:46:30;;;;;;;1.30;1.10;;;;;;;4.45;100.00;102221.84;1239995;23;20345;-89
2023/10/16 00:47:05;;;;;;;2.88;1.27;;;;;;;4.54;100.00;102222.78;1237636;24;20272;-89
2023/10/16 00:47:39;;;;;;;5.82;2.20;;;;;;;4.60;100.00;102220.41;1230140;24;20297;-89
2023/10/16 00:48:15;;;;;;;3.88;1.90;;;;;;;4.53;100.00;102229.03;1241075;23;20287;-90
2023/10/16 00:48:47;;;;;;;1.40;1.30;;;;;;;4.56;100.00;102226.94;1246156;23;20257;-90
2023/10/16 00:49:18;;;;;;;2.10;1.52;;;;;;;4.63;100.00;102222.75;1241793;23;20655;-90
2023/10/16 00:49:51;;;;;;;4.18;1.75;;;;;;;4.69;100.00;102220.53;1237783;24;20279;-89
2023/10/16 00:50:23;;;;;;;6.00;2.38;;;;;;;4.68;100.00;102218.88;1231727;24;20269;-90
2023/10/16 00:50:55;;;;;;;2.25;1.42;;;;;;;4.61;100.00;102216.78;1232260;24;20284;-89
2023/10/16 00:51:28;;;;;;;2.67;2.42;;;;;;;4.65;100.00;102222.63;1235062;24;20253;-89
2023/10/16 00:52:14;;;;;;;2.83;1.58;;;;;;;4.73;100.00;102220.09;1236297;24;20256;-89
2023/10/16 00:52:46;;;;;;;2.92;1.33;;;;;;;4.75;100.00;102215.50;1247188;23;20275;-89
2023/10/16 00:53:22;;;;;;;3.30;1.58;;;;;;;4.80;100.00;102220.34;1243298;23;20267;-89
2023/10/16 00:53:55;;;;;;;5.18;1.48;;;;;;;4.76;100.00;102218.97;1237013;24;20273;-90
2023/10/16 00:54:28;;;;;;;3.58;1.52;;;;;;;4.87;100.00;102216.97;1236399;24;20265;-90
2023/10/16 00:55:02;;;;;;;6.43;1.98;;;;;;;4.79;100.00;102221.34;1224012;24;20278;-90
2023/10/16 00:55:34;;;;;;;2.30;2.00;;;;;;;4.85;100.00;102218.94;1235409;24;20735;-90
2023/10/16 00:56:08;;;;;;;4.18;1.38;;;;;;;4.85;100.00;102221.56;1238824;24;20336;-89
2023/10/16 00:56:40;;;;;;;2.33;1.40;;;;;;;4.91;100.00;102217.53;1229695;24;20270;-89
2023/10/16 00:57:12;;;;;;;2.42;1.67;;;;;;;4.92;100.00;102219.19;1236526;24;20280;-90
2023/10/16 00:57:43;;;;;;;5.10;2.20;;;;;;;4.93;100.00;102211.16;1247597;23;20282;-89
2023/10/16 00:58:16;;;;;;;4.18;1.60;;;;;;;4.88;100.00;102217.81;1252748;23;20274;-90
2023/10/16 00:58:48;;;;;;;3.40;1.77;;;;;;;4.95;100.00;102213.63;1242096;23;20272;-89
2023/10/16 00:59:23;;;;;;;2.75;1.42;;;;;;;4.96;100.00;102215.31;1225657;24;20277;-89
2023/10/16 00:59:55;;;;;;;2.70;1.73;;;;;;;5.03;100.00;102213.72;1244070;23;20320;-90
2023/10/16 01:00:28;;;;;;;12.13;3.70;;;;;;;5.02;100.00;102214.72;1238043;24;20277;-90
2023/10/16 01:01:02;;;;;;;7.22;1.95;;;;;;;5.06;100.00;102216.09;1237991;24;20269;-89
2023/10/16 01:01:43;;;;;;;10.13;2.10;;;;;;;5.02;100.00;102214.72;1237913;24;20269;-89
2023/10/16 01:02:15;;;;;;;6.57;2.35;;;;;;;5.03;100.00;102211.09;1245763;23;20516;-90
2023/10/16 01:02:47;;;;;;;4.68;1.58;;;;;;;5.02;100.00;102214.72;1240138;24;20012;-89
2023/10/16 01:03:22;;;;;;;5.25;1.90;;;;;;;4.94;100.00;102214.63;1241314;23;20281;-90
2023/10/16 01:03:57;;;;;;;1.42;1.20;;;;;;;5.02;100.00;102216.53;1234270;24;20284;-89
2023/10/16 01:04:29;;;;;;;2.85;1.55;;;;;;;5.07;100.00;102215.09;1242978;23;20283;-90
2023/10/16 01:05:01;;;;;;;1.83;1.60;;;;;;;5.13;100.00;102218.97;1242274;23;20347;-90
2023/10/16 01:05:42;;;;;;;3.40;1.60;;;;;;;5.16;100.00;102216.84;1241640;23;20732;-90
2023/10/16 01:06:16;;;;;;;6.57;2.08;;;;;;;5.16;100.00;102206.28;1236956;24;20741;-89
2023/10/16 01:06:48;;;;;;;1.60;1.40;;;;;;;5.21;100.00;102214.63;1243351;23;20756;-89
2023/10/16 01:07:22;;;;;;;4.40;2.08;;;;;;;5.20;100.00;102217.38;1228102;24;20278;-90
2023/10/16 01:07:54;;;;;;;6.30;2.55;;;;;;;5.19;100.00;102211.28;1239571;24;20261;-90
2023/10/16 01:08:25;;;;;;;6.07;3.70;;;;;;;5.18;100.00;102214.88;1248973;23;20283;-89
2023/10/16 01:08:58;;;;;;;7.53;2.67;;;;;;;5.23;100.00;102211.84;1245756;23;20256;-89
2023/10/16 01:09:34;;;;;;;5.10;2.03;;;;;;;5.21;100.00;102211.97;1238328;24;20351;-90
2023/10/16 01:10:10;;;;;;;3.35;2.05;;;;;;;5.19;100.00;102211.28;1236260;24;20733;-90
2023/10/16 01:10:43;;;;;;;3.83;1.90;;;;;;;5.22;100.00;102211.00;1235414;24;20269;-90
2023/10/16 01:11:19;;;;;;;7.30;1.80;;;;;;;5.07;100.00;102215.09;1230168;24;20767;-89
2023/10/16 01:11:51;;;;;;;5.13;1.83;;;;;;;5.12;100.00;102212.00;1238141;23;20756;-90
2023/10/16 01:12:23;;;;;;;2.58;1.83;;;;;;;5.19;100.00;102216.56;1243248;23;20272;-90
2023/10/16 01:12:55;;;;;;;3.28;2.00;;;;;;;5.23;100.00;102212.66;1249285;23;20267;-89
2023/10/16 01:13:28;;;;;;;2.80;1.50;;;;;;;5.17;100.00;102217.69;1229264;24;20276;-90
2023/10/16 01:13:59;;;;;;;2.75;1.48;;;;;;;5.15;100.00;102209.91;1236288;24;20277;-90
2023/10/16 01:14:31;;;;;;;2.28;1.50;;;;;;;5.14;100.00;102221.44;1245905;23;20260;-90
2023/10/16 01:15:05;;;;;;;4.78;1.85;;;;;;;5.08;100.00;102216.75;1240972;23;20606;-89
2023/10/16 01:15:43;;;;;;;8.43;2.10;;;;;;;5.07;100.00;102223.03;1235768;23;20300;-89
2023/10/16 01:16:16;;;;;;;4.55;1.73;;;;;;;5.05;100.00;102211.78;1243682;23;20279;-90
2023/10/16 01:16:49;;;;;;;2.15;1.85;;;;;;;5.10;100.00;102220.09;1245301;23;20267;-89
2023/10/16 01:17:29;;;;;;;2.35;1.70;;;;;;;5.18;100.00;102212.25;1231997;23;20315;-89
2023/10/16 01:18:02;;;;;;;;;;;;;;;5.19;100.00;102216.56;1237977;24;20336;-89
2023/10/16 01:18:34;;;;;;;2.50;1.67;;;;;;;5.17;100.00;102221.16;1247303;23;19953;-89
2023/10/16 01:19:08;;;;;;;9.30;2.25;;;;;;;5.15;100.00;102215.19;1243193;23;20772;-90
2023/10/16 01:19:44;;;;;;;5.53;1.35;;;;;;;5.14;100.00;102216.16;1238440;24;20649;-90
2023/10/16 01:20:18;;;;;;;7.18;2.35;;;;;;;5.24;100.00;102209.03;1243486;23;20272;-89
2023/10/16 01:20:51;;;;;;;7.20;2.10;;;;;;;5.25;100.00;102209.88;1243344;23;20740;-89
2023/10/16 01:21:23;;;;;;;2.45;1.80;;;;;;;5.30;100.00;102209.44;1246991;23;20740;-89
2023/10/16 01:21:55;;;;;;;8.75;2.10;;;;;;;5.27;100.00;102218.47;1243247;23;20289;-89
2023/10/16 01:22:29;;;;;;;2.88;1.90;;;;;;;5.33;100.00;102214.41;1243993;23;20788;-90
2023/10/16 01:23:04;;;;;;;8.95;2.83;;;;;;;5.32;100.00;102210.94;1243872;23;20259;-89
2023/10/16 01:23:36;;;;;;;2.35;1.55;;;;;;;5.23;100.00;102207.38;1243471;23;20248;-89
2023/10/16 01:24:12;;;;;;;3.75;1.30;;;;;;;5.29;100.00;102205.97;1248223;23;20620;-89
2023/10/16 01:24:44;;;;;;;10.52;2.45;;;;;;;5.26;100.00;102207.09;1251043;23;20263;-89
2023/10/16 01:25:17;;;;;;;4.05;2.17;;;;;;;5.31;100.00;102208.44;1247469;23;20292;-90
2023/10/16 01:25:49;;;;;;;7.00;2.00;;;;;;;5.36;100.00;102200.91;1245183;23;20605;-89
2023/10/16 01:26:21;;;;;;;6.47;1.92;;;;;;;5.35;100.00;102204.53;1246209;23;20284;-90
2023/10/16 01:27:00;;;;;;;7.75;2.08;;;;;;;5.30;100.00;102204.16;1260205;23;20266;-89
2023/10/16 01:27:37;;;;;;;5.47;2.10;;;;;;;5.31;100.00;102198.72;1250029;23;20272;-89
2023/10/16 01:28:10;;;;;;;1.73;1.30;;;;;;;5.31;100.00;102197.88;1238073;24;20281;-89
2023/10/16 01:28:41;;;;;;;5.45;2.75;;;;;;;5.31;100.00;102200.53;1242922;23;20279;-89
2023/10/16 01:29:15;;;;;;;3.28;1.60;;;;;;;5.35;100.00;102204.53;1241273;23;20272;-90
2023/10/16 01:29:47;;;;;;;3.35;1.95;;;;;;;5.27;100.00;102200.00;1236821;24;20279;-90
2023/10/16 01:30:19;;;;;;;5.82;2.17;;;;;;;5.32;100.00;102200.38;1239091;24;20287;-89
2023/10/16 01:30:52;;;;;;;6.15;2.10;;;;;;;5.33;100.00;102206.47;1243834;23;20403;-90
2023/10/16 01:31:24;;;;;;;8.25;2.35;;;;;;;5.20;100.00;102197.13;1232413;24;20614;-90
2023/10/16 01:31:56;;;;;;;5.80;2.47;;;;;;;5.31;100.00;102211.91;1236293;24;20280;-90
2023/10/16 01:32:28;;;;;;;3.63;1.85;;;;;;;5.32;100.00;102199.53;1239000;24;20252;-90
2023/10/16 01:33:00;;;;;;;2.58;1.45;;;;;;;5.32;100.00;102208.31;1238492;24;20264;-90
2023/10/16 01:33:31;;;;;;;3.95;2.05;;;;;;;5.33;100.00;102207.31;1237263;24;20312;-89
2023/10/16 01:34:10;;;;;;;8.02;2.00;;;;;;;5.27;100.00;102203.47;1240981;23;20272;-90
2023/10/16 01:34:42;;;;;;;2.55;1.67;;;;;;;5.35;100.00;102209.81;1236670;23;20341;-90
2023/10/16 01:35:14;;;;;;;4.28;2.60;;;;;;;5.32;100.00;102207.47;1246429;23;20604;-90
2023/10/16 01:35:46;;;;;;;5.07;1.55;;;;;;;5.00;100.00;102206.09;1241643;23;20835;-89
2023/10/16 01:36:17;;;;;;;4.57;1.80;;;;;;;5.09;100.00;102193.81;1236244;23;20354;-89
2023/10/16 01:36:51;;;;;;;7.40;2.40;;;;;;;5.00;100.00;102203.47;1237207;24;20295;-90
2023/10/16 01:37:25;;;;;;;3.85;2.00;;;;;;;5.09;100.00;102194.66;1231421;24;20887;-89
2023/10/16 01:38:00;;;;;;;4.93;2.28;;;;;;;5.18;100.00;102200.84;1242373;23;20773;-89
2023/10/16 01:38:32;;;;;;;4.88;2.60;;;;;;;5.11;100.00;102195.34;1236827;24;20368;-89
2023/10/16 01:39:35;;;;;;;2.70;1.95;;;;;;;5.16;100.00;102198.38;1237685;24;20264;-90
2023/10/16 01:40:17;;;;;;;2.35;1.77;;;;;;;5.10;100.00;102193.69;1237699;23;20352;-89
2023/10/16 01:41:04;;;;;;;2.40;1.65;;;;;;;5.19;100.00;102200.72;1242552;23;20277;-90
2023/10/16 01:41:39;;;;;;;7.97;2.00;;;;;;;5.24;100.00;102198.47;1243789;23;20256;-89
2023/10/16 01:42:11;;;;;;;3.47;1.85;;;;;;;5.18;100.00;102198.22;1244057;23;20757;-90
2023/10/16 01:42:43;;;;;;;6.15;2.65;;;;;;;5.20;100.00;102196.25;1249041;23;20275;-89
2023/10/16 01:43:15;;;;;;;5.28;2.17;;;;;;;5.14;100.00;102200.31;1252793;23;20290;-90
2023/10/16 01:43:51;;;;;;;8.90;2.72;;;;;;;5.15;100.00;102201.16;1237758;23;20276;-90
2023/10/16 01:44:23;;;;;;;5.75;2.75;;;;;;;5.18;100.00;102199.03;1248859;23;20282;-89
2023/10/16 01:44:55;;;;;;;4.60;2.05;;;;;;;5.14;100.00;102202.13;1248000;23;20304;-89
2023/10/16 01:45:27;;;;;;;3.83;2.13;;;;;;;5.18;100.00;102201.69;1247444;23;20279;-89
2023/10/16 01:46:09;;;;;;;8.95;3.13;;;;;;;5.08;100.00;102200.91;1235142;23;20281;-90
2023/10/16 01:46:41;;;;;;;2.85;2.15;;;;;;;5.14;100.00;102192.41;1240648;23;20279;-90
2023/10/16 01:47:17;;;;;;;2.55;1.92;;;;;;;5.08;100.00;102193.00;1243946;23;20617;-88
2023/10/16 01:47:48;;;;;;;3.28;2.05;;;;;;;5.16;100.00;102186.97;1240976;23;20681;-89
2023/10/16 01:48:20;;;;;;;7.85;2.25;;;;;;;5.15;100.00;102193.22;1236705;23;20268;-90
2023/10/16 01:48:52;;;;;;;2.22;1.75;;;;;;;5.14;100.00;102192.41;1246970;23;20309;-90
2023/10/16 01:49:24;;;;;;;2.95;2.10;;;;;;;5.17;100.00;102186.81;1242583;23;20395;-90
2023/10/16 01:49:58;;;;;;;4.75;2.35;;;;;;;5.19;100.00;102191.94;1234338;23;20283;-89
2023/10/16 01:50:30;;;;;;;6.75;1.98;;;;;;;5.15;100.00;102196.69;1241057;23;20268;-90
2023/10/16 01:51:02;;;;;;;3.88;2.20;;;;;;;5.15;100.00;102182.66;1229524;24;20273;-89
2023/10/16 01:51:35;;;;;;;4.68;2.08;;;;;;;5.24;100.00;102190.56;1237471;23;20277;-89
2023/10/16 01:52:12;;;;;;;8.73;2.25;;;;;;;5.10;100.00;102191.03;1237441;24;20261;-90
2023/10/16 01:52:43;;;;;;;3.72;1.88;;;;;;;5.19;100.00;102190.13;1229818;24;20316;-89
2023/10/16 01:53:25;;;;;;;4.93;2.42;;;;;;;5.28;100.00;102191.09;1232105;24;20390;-90
2023/10/16 01:53:57;;;;;;;5.32;2.30;;;;;;;5.24;100.00;102187.09;1237067;24;20329;-89
2023/10/16 01:54:29;;;;;;;4.13;2.80;;;;;;;5.09;100.00;102186.72;1241407;23;20275;-90
2023/10/16 01:55:03;;;;;;;7.90;2.45;;;;;;;5.10;100.00;102175.19;1235085;23;20280;-90
2023/10/16 01:55:34;;;;;;;2.78;1.95;;;;;;;5.24;100.00;102187.91;1237677;23;20676;-89
2023/10/16 01:56:13;;;;;;;6.18;2.42;;;;;;;5.33;100.00;102185.34;1233474;23;20276;-89
2023/10/16 01:56:45;;;;;;;2.15;1.73;;;;;;;5.34;100.00;102187.00;1240177;23;20276;-90
2023/10/16 01:57:17;;;;;;;4.40;2.72;;;;;;;5.32;100.00;102186.34;1230033;24;20266;-90
2023/10/16 01:57:50;;;;;;;4.40;2.55;;;;;;;5.30;100.00;102185.66;1242672;23;20348;-90
2023/10/16 01:58:23;;;;;;;4.80;2.13;;;;;;;5.26;100.00;102183.31;1243139;23;20325;-90
2023/10/16 01:58:56;;;;;;;3.13;2.30;;;;;;;5.20;100.00;102183.91;1241888;23;21089;-89
2023/10/16 01:59:28;;;;;;;2.95;2.17;;;;;;;5.24;100.00;102187.91;1230981;24;20276;-89
2023/10/16 02:00:00;;;;;;;2.30;2.10;;;;;;;5.16;100.00;102182.50;1235887;24;20276;-90
2023/10/16 02:00:34;;;;;;;6.18;2.15;;;;;;;5.20;100.00;102181.28;1238011;24;20268;-89
2023/10/16 02:01:08;;;;;;;6.47;2.50;;;;;;;5.13;100.00;102184.63;1239977;24;20264;-90
2023/10/16 02:01:41;;;;;;;3.08;2.20;;;;;;;5.11;100.00;102181.31;1249342;23;20279;-90
2023/10/16 02:02:13;;;;;;;5.03;1.95;;;;;;;5.13;100.00;102179.34;1247414;23;20613;-90
2023/10/16 02:02:45;;;;;;;6.07;2.13;;;;;;;5.06;100.00;102179.09;1248167;23;20299;-89
2023/10/16 02:03:22;;;;;;;4.85;2.13;;;;;;;5.05;100.00;102177.44;1249207;23;20271;-89
2023/10/16 02:03:54;;;;;;;2.95;2.13;;;;;;;5.03;100.00;102182.03;1250853;23;20324;-90
2023/10/16 02:04:26;;;;;;;3.83;2.67;;;;;;;5.03;100.00;102179.41;1255486;23;20263;-89
2023/10/16 02:04:58;;;;;;;4.30;2.20;;;;;;;5.04;100.00;102185.53;1242622;23;20438;-89
2023/10/16 02:05:32;;;;;;;3.03;2.05;;;;;;;5.07;100.00;102182.56;1237521;23;20277;-89
2023/10/16 02:06:04;;;;;;;3.70;2.20;;;;;;;5.00;100.00;102182.34;1242383;23;20283;-90
2023/10/16 02:06:36;;;;;;;2.92;2.17;;;;;;;5.03;100.00;102183.84;1236140;24;20742;-90
2023/10/16 02:07:08;;;;;;;5.53;3.08;;;;;;;5.00;100.00;102178.88;1244535;23;20288;-89
2023/10/16 02:07:43;;;;;;;10.90;4.72;;;;;;;5.00;100.00;102184.16;1243157;23;20882;-89
2023/10/16 02:08:15;;;;;;;7.45;2.30;;;;;;;4.95;100.00;102185.44;1256714;23;20327;-90
2023/10/16 02:08:48;;;;;;;7.70;2.47;;;;;;;4.98;100.00;102192.22;1247353;23;20353;-90
2023/10/16 02:09:23;;;;;;;13.43;2.85;;;;;;;5.02;100.00;102187.47;1235196;23;20273;-90
2023/10/16 02:09:55;;;;;;;4.85;2.22;;;;;;;4.95;100.00;102187.25;1238337;24;20287;-89
2023/10/16 02:10:28;;;;;;;4.43;2.40;;;;;;;4.91;100.00;102180.56;1235203;24;20388;-90
2023/10/16 02:11:02;;;;;;;3.92;2.35;;;;;;;4.80;100.00;102184.22;1237202;24;20265;-90
2023/10/16 02:11:34;;;;;;;3.33;2.20;;;;;;;4.90;100.00;102190.28;1247146;23;20264;-90
2023/10/16 02:12:14;;;;;;;3.80;2.45;;;;;;;4.97;100.00;102188.75;1250995;23;20352;-89
2023/10/16 02:12:48;;;;;;;7.28;2.60;;;;;;;4.80;100.00;102183.41;1244140;23;20279;-89
2023/10/16 02:13:19;;;;;;;3.42;1.95;;;;;;;4.82;100.00;102182.28;1238111;23;20308;-89
2023/10/16 02:13:51;;;;;;;6.28;2.80;;;;;;;4.86;100.00;102181.00;1241369;23;20275;-89
2023/10/16 02:14:24;;;;;;;8.13;2.80;;;;;;;4.87;100.00;102181.84;1236388;23;20816;-90
2023/10/16 02:14:56;;;;;;;4.68;2.63;;;;;;;4.99;100.00;102178.03;1238050;23;20273;-89
2023/10/16 02:15:28;;;;;;;6.40;2.90;;;;;;;5.00;100.00;102184.16;1230915;24;20325;-89
2023/10/16 02:16:00;;;;;;;4.45;2.35;;;;;;;5.07;100.00;102186.06;1235726;24;20269;-89
2023/10/16 02:16:31;;;;;;;4.60;2.78;;;;;;;5.06;100.00;102184.38;1250468;23;20263;-90
2023/10/16 02:17:03;;;;;;;5.75;2.22;;;;;;;5.08;100.00;102182.44;1244158;23;20695;-89
2023/10/16 02:17:37;;;;;;;4.70;3.40;;;;;;;5.18;100.00;102180.56;1243425;23;20354;-90
2023/10/16 02:18:24;;;;;;;8.77;2.25;;;;;;;5.03;100.00;102178.56;1237773;24;20265;-89
2023/10/16 02:18:57;;;;;;;3.55;2.33;;;;;;;5.08;100.00;102181.59;1243146;23;20733;-90
2023/10/16 02:19:29;;;;;;;6.68;2.22;;;;;;;5.11;100.00;102186.59;1239774;23;20261;-90
2023/10/16 02:20:01;;;;;;;4.05;1.90;;;;;;;5.15;100.00;102180.84;1233291;24;20349;-89
2023/10/16 02:20:36;;;;;;;3.42;2.10;;;;;;;5.20;100.00;102185.69;1229667;24;20273;-89
2023/10/16 02:21:12;;;;;;;6.45;2.92;;;;;;;5.25;100.00;102189.56;1239971;24;20785;-90
2023/10/16 02:21:46;;;;;;;4.32;2.47;;;;;;;5.24;100.00;102187.91;1245641;23;20700;-88
2023/10/16 02:22:22;;;;;;;3.88;2.10;;;;;;;5.32;100.00;102184.53;1245630;23;20264;-90
2023/10/16 02:22:54;;;;;;;3.60;2.58;;;;;;;5.28;100.00;102189.28;1244304;23;20260;-89
2023/10/16 02:23:30;;;;;;;4.13;2.72;;;;;;;5.30;100.00;102186.47;1241677;23;20249;-89
2023/10/16 02:24:03;;;;;;;5.00;2.03;;;;;;;5.31;100.00;102187.31;1237383;24;20328;-90
2023/10/16 02:24:37;;;;;;;4.78;2.55;;;;;;;5.33;100.00;102191.47;1238943;23;20267;-89
2023/10/16 02:25:11;;;;;;;3.75;2.80;;;;;;;5.39;100.00;102182.09;1243169;23;20264;-90
2023/10/16 02:25:43;;;;;;;4.25;2.15;;;;;;;5.35;100.00;102189.50;1243662;23;20253;-89
2023/10/16 02:26:19;;;;;;;3.95;2.83;;;;;;;5.14;100.00;102181.84;1247878;23;20268;-90
2023/10/16 02:26:57;;;;;;;2.40;2.20;;;;;;;5.28;100.00;102189.28;1237867;23;20287;-90
2023/10/16 02:27:30;;;;;;;4.50;2.65;;;;;;;5.20;100.00;102181.28;1237146;24;20272;-88
2023/10/16 02:28:07;;;;;;;3.55;2.35;;;;;;;5.34;100.00;102189.66;1243132;23;20408;-90
2023/10/16 02:28:46;;;;;;;5.80;2.80;;;;;;;5.19;100.00;102190.13;1246054;23;20259;-90
2023/10/16 02:29:17;;;;;;;3.58;3.25;;;;;;;5.29;100.00;102184.81;1234741;23;20326;-89
2023/10/16 02:29:51;;;;;;;4.47;2.63;;;;;;;5.23;100.00;102191.53;1235178;24;20758;-90
2023/10/16 02:30:56;;;;;;;4.25;2.80;;;;;;;5.28;100.00;102188.44;1236753;24;20268;-90
2023/10/16 02:31:32;;;;;;;5.57;3.35;;;;;;;5.31;100.00;102187.31;1242945;23;20787;-89
2023/10/16 02:32:09;;;;;;;5.40;3.20;;;;;;;5.33;100.00;102188.00;1240875;23;20275;-90
2023/10/16 02:32:42;;;;;;;2.22;2.03;;;;;;;5.35;100.00;102192.16;1235189;23;20405;-90
2023/10/16 02:33:50;;;;;;;7.32;2.92;;;;;;;5.28;100.00;102181.34;1243216;23;20256;-89
2023/10/16 02:34:14;;;;;;;8.43;2.80;;;;;;;5.12;100.00;102177.69;1242635;23;20610;-90
2023/10/16 02:34:49;;;;;;;9.65;3.10;;;;;;;5.21;100.00;102188.22;1252387;23;20275;-89
2023/10/16 02:35:21;;;;;;;4.80;3.15;;;;;;;5.33;100.00;102185.34;1255057;23;20387;-89
2023/10/16 02:35:53;;;;;;;4.30;2.78;;;;;;;5.37;100.00;102186.72;1254689;23;20258;-89
2023/10/16 02:36:26;;;;;;;3.15;2.85;;;;;;;5.28;100.00;102177.88;1240876;23;20264;-90
2023/10/16 02:36:59;;;;;;;13.75;5.40;;;;;;;5.40;100.00;102189.06;1243196;23;20583;-88
2023/10/16 02:37:30;;;;;;;6.57;2.92;;;;;;;5.44;100.00;102185.13;1235132;24;20253;-89
2023/10/16 02:38:02;;;;;;;9.65;3.55;;;;;;;5.44;100.00;102182.47;1234324;23;20265;-89
2023/10/16 02:38:34;;;;;;;6.95;2.75;;;;;;;5.50;100.00;102188.03;1229459;24;20493;-89
2023/10/16 02:39:08;;;;;;;3.60;2.80;;;;;;;5.54;100.00;102188.56;1235731;24;20711;-89